Inicio METAR Ruta Wind Satelite

Informe Meteorológico

Fecha: 2021/09/21 15:13:17 Local
2021.09.21 20:13 UTC


Operación:VFR
SKRG 212000Z 13008KT 9999 SCT020TCU BKN200 21/12 Q1023 NOSIG RMK TCUSW/N A3021 =

SKRG 211900Z 13008KT 9999 SCT020TCU BKN200 22/13 Q1023 NOSIG RMK TCU/SW/N A3023
SKRG 211800Z 16008KT 9999 SCT020TCU BKN200 22/13 Q1025 NOSIG RMK TCU/SW A3027
SKRG 211700Z 12006KT 9999 SCT020TCU BKN200 21/13 Q1026 NOSIG RMK TCU/S/W A3031
SKRG 211600Z 16008KT 9999 SCT020TCU BKN200 21/14 Q1027 NOSIG RMK TCU/S/N A3033
SKRG 211500Z 36004KT 9999 SCT020 SCT200 20/14 Q1027 NOSIG RMK A3033

2021/09/21 18:55
TAF SKRG 211630Z 2118/2218 12010KT 9999 SCT020
TEMPO 2119/2122 SCT020TCU
BECMG 2200/2202 VRB02KT BKN015
TEMPO 2202/2206 5000 TSRA BKN010CB
BECMG 2207/2209 4000 BR DZ BKN005
BECMG 2213/2215 10010KT 9999 NSW SCT020 TX23/2119Z TN13/2211Z